Time;durP1;ratioP1;P1;durP2;ratioP2;P2;SDS_P1;SDS_P2;PMS_P1;PMS_P2;Temp;Humidity;BMP_temperature;BMP_pressure;BME280_temperature;BME280_humidity;BME280_pressure;Samples;Min_cycle;Max_cycle;Signal;HPM_P1;HPM_P2
2022/03/01 00:00:41;;;;;;;12.95;4.75;;;;;;;2.97;46.26;100139.72;4476471;31;20104;-80
2022/03/01 00:03:08;;;;;;;13.98;5.55;;;;;;;3.12;45.98;100137.09;4465062;31;20108;-79
2022/03/01 00:05:34;;;;;;;14.57;5.00;;;;;;;3.01;46.23;100135.37;4477557;31;20093;-79
2022/03/01 00:07:59;;;;;;;12.98;4.20;;;;;;;2.87;46.42;100136.28;4492225;31;20128;-80
2022/03/01 00:10:25;;;;;;;13.10;4.62;;;;;;;2.51;47.36;100137.16;4478992;31;20166;-81
2022/03/01 00:12:50;;;;;;;11.45;4.47;;;;;;;2.93;46.64;100131.03;4478333;31;20168;-80
2022/03/01 00:15:15;;;;;;;13.18;4.57;;;;;;;3.13;46.64;100132.75;4477680;31;20099;-80
2022/03/01 00:17:41;;;;;;;12.25;4.55;;;;;;;2.72;46.80;100149.28;4477274;31;20107;-80
2022/03/01 00:20:07;;;;;;;11.63;4.68;;;;;;;2.91;46.54;100144.94;4479000;31;20139;-80
2022/03/01 00:22:33;;;;;;;11.75;4.93;;;;;;;2.62;46.88;100140.62;4490712;31;20202;-78
2022/03/01 00:24:59;;;;;;;15.30;5.00;;;;;;;2.81;46.59;100133.69;4476978;31;20883;-80
2022/03/01 00:27:25;;;;;;;10.77;4.22;;;;;;;2.81;46.65;100130.22;4477124;31;20130;-81
2022/03/01 00:29:50;;;;;;;14.20;5.07;;;;;;;2.88;46.25;100129.34;4492670;31;20435;-77
2022/03/01 00:32:16;;;;;;;12.23;4.80;;;;;;;3.05;45.98;100134.50;4472442;31;20092;-77
2022/03/01 00:34:41;;;;;;;12.57;4.82;;;;;;;3.01;46.08;100130.16;4486943;31;20126;-79
2022/03/01 00:37:07;;;;;;;11.57;4.90;;;;;;;2.81;46.57;100131.06;4483977;31;20100;-79
2022/03/01 00:39:34;;;;;;;12.37;4.70;;;;;;;2.87;46.33;100125.00;4472964;31;20100;-79
2022/03/01 00:41:59;;;;;;;12.95;4.65;;;;;;;2.86;46.43;100131.94;4491495;31;20499;-79
2022/03/01 00:44:25;;;;;;;12.55;5.07;;;;;;;2.95;46.16;100129.34;4478943;31;20150;-79
2022/03/01 00:46:50;;;;;;;13.07;4.82;;;;;;;2.92;46.53;100124.13;4476758;31;20171;-79
2022/03/01 00:49:16;;;;;;;12.32;4.53;;;;;;;2.88;46.25;100129.34;4475750;31;20204;-78
2022/03/01 00:51:42;;;;;;;12.07;4.75;;;;;;;2.72;46.54;100123.28;4488875;31;20379;-78
2022/03/01 00:54:07;;;;;;;11.50;4.62;;;;;;;2.70;46.74;100119.81;4492506;31;20113;-79
2022/03/01 00:56:34;;;;;;;11.88;4.82;;;;;;;2.63;46.67;100129.38;4477580;31;20084;-79
2022/03/01 00:59:00;;;;;;;11.25;3.90;;;;;;;2.72;46.77;100120.69;4472864;32;20127;-80
2022/03/01 01:01:25;;;;;;;13.18;4.65;;;;;;;2.75;46.48;100113.72;4487613;31;20092;-78
2022/03/01 01:03:51;;;;;;;11.57;4.53;;;;;;;3.00;45.83;100110.22;4484095;32;20143;-78
2022/03/01 01:06:16;;;;;;;11.50;4.37;;;;;;;3.05;45.73;100113.66;4484278;32;20107;-79
2022/03/01 01:08:42;;;;;;;11.35;4.53;;;;;;;2.90;46.03;100112.00;4485429;31;20085;-80
2022/03/01 01:11:07;;;;;;;12.52;4.45;;;;;;;3.00;45.77;100111.09;4484274;32;20099;-79
2022/03/01 01:13:33;;;;;;;12.25;4.05;;;;;;;2.99;45.75;100105.88;4467760;31;20390;-76
2022/03/01 01:15:58;;;;;;;11.68;4.15;;;;;;;3.04;45.65;100109.34;4487811;31;20103;-77
2022/03/01 01:18:24;;;;;;;13.15;4.62;;;;;;;2.90;45.74;100110.25;4486828;31;20124;-78
2022/03/01 01:20:50;;;;;;;11.95;4.22;;;;;;;3.07;45.38;100110.22;4478133;31;20795;-78
2022/03/01 01:23:15;;;;;;;12.37;4.70;;;;;;;3.12;45.06;100111.03;4501178;31;20096;-77
2022/03/01 01:25:41;;;;;;;12.73;4.25;;;;;;;2.80;45.82;100118.94;4499530;31;20177;-78
2022/03/01 01:28:06;;;;;;;12.02;3.83;;;;;;;2.41;46.35;100112.88;4478062;31;20158;-77
2022/03/01 01:30:33;;;;;;;11.20;4.12;;;;;;;2.67;46.23;100117.22;4492920;31;20111;-77
2022/03/01 01:32:59;;;;;;;12.68;4.43;;;;;;;2.76;45.74;100114.59;4481987;31;20088;-77
2022/03/01 01:35:27;;;;;;;10.75;4.28;;;;;;;2.84;45.62;100111.97;4492227;31;20185;-77
2022/03/01 01:37:54;;;;;;;12.52;4.32;;;;;;;2.63;46.04;100113.75;4496137;31;21297;-76
2022/03/01 01:40:25;;;;;;;11.32;4.45;;;;;;;2.99;45.36;100111.94;4479045;31;20116;-76
2022/03/01 01:42:51;;;;;;;13.40;4.70;;;;;;;3.06;44.99;100118.87;4481644;31;20085;-78
2022/03/01 01:45:17;;;;;;;10.95;4.57;;;;;;;2.89;45.33;100112.84;4494518;31;20118;-79
2022/03/01 01:47:44;;;;;;;11.55;4.30;;;;;;;2.92;45.45;100110.25;4495381;31;20116;-76
2022/03/01 01:50:10;;;;;;;12.13;4.43;;;;;;;2.97;45.37;100113.69;4493774;31;20538;-76
2022/03/01 01:52:36;;;;;;;12.18;4.15;;;;;;;2.87;45.27;100105.03;4480728;31;20159;-77
2022/03/01 01:55:03;;;;;;;10.80;3.75;;;;;;;2.69;45.79;100107.69;4495085;31;20104;-77
2022/03/01 01:57:28;;;;;;;11.12;4.05;;;;;;;2.53;45.86;100119.81;4499380;31;20167;-77
2022/03/01 01:59:55;;;;;;;10.98;4.15;;;;;;;2.69;45.60;100108.53;4501569;31;20372;-77
2022/03/01 02:02:23;;;;;;;10.95;3.78;;;;;;;2.68;45.58;100104.19;4481370;31;20455;-77
2022/03/01 02:04:48;;;;;;;11.52;4.32;;;;;;;2.78;45.14;100099.84;4499074;31;20600;-78
2022/03/01 02:07:14;;;;;;;11.73;4.10;;;;;;;2.68;45.33;100105.94;4479058;31;20104;-78
2022/03/01 02:09:40;;;;;;;12.37;4.47;;;;;;;2.85;44.96;100098.97;4471983;31;20119;-77
2022/03/01 02:12:06;;;;;;;10.68;3.60;;;;;;;2.93;44.73;100094.59;4477601;31;20147;-77
2022/03/01 02:14:33;;;;;;;13.00;3.97;;;;;;;2.82;45.00;100098.09;4478949;31;20081;-77
2022/03/01 02:17:01;;;;;;;11.93;4.07;;;;;;;2.66;45.26;100098.13;4476308;31;20135;-78
2022/03/01 02:19:26;;;;;;;9.33;3.47;;;;;;;2.68;45.31;100093.78;4494019;31;20129;-79
2022/03/01 02:21:57;;;;;;;11.00;3.22;;;;;;;2.55;45.44;100092.97;4478130;31;20294;-78
2022/03/01 02:24:24;;;;;;;12.30;3.53;;;;;;;2.75;45.21;100090.31;4488891;31;20113;-80
2022/03/01 02:26:56;;;;;;;9.68;3.47;;;;;;;2.93;44.91;100106.75;4492467;31;20191;-78
2022/03/01 02:29:22;;;;;;;11.30;4.07;;;;;;;2.68;45.08;100090.31;4479775;31;20073;-78
2022/03/01 02:31:48;;;;;;;11.75;3.92;;;;;;;2.89;44.48;100087.69;4478151;31;20110;-79
2022/03/01 02:34:13;;;;;;;10.00;3.60;;;;;;;2.89;44.37;100082.47;4490401;31;20108;-79
2022/03/01 02:36:39;;;;;;;9.93;3.70;;;;;;;2.53;45.09;100094.69;4493016;31;20096;-79
2022/03/01 02:39:05;;;;;;;10.20;3.72;;;;;;;2.89;44.38;100084.22;4489804;31;20157;-78
2022/03/01 02:41:30;;;;;;;9.43;3.30;;;;;;;2.73;44.83;100086.84;4492461;31;20088;-79
2022/03/01 02:43:56;;;;;;;9.52;3.60;;;;;;;2.87;44.22;100092.03;4479163;31;20704;-79
2022/03/01 02:46:21;;;;;;;10.85;3.35;;;;;;;2.68;44.65;100103.34;4468906;31;20116;-80
2022/03/01 02:48:46;;;;;;;11.98;3.60;;;;;;;2.69;44.66;100092.06;4496747;31;20518;-78
2022/03/01 02:51:12;;;;;;;10.52;3.78;;;;;;;2.63;44.93;100089.50;4496150;31;20112;-80
2022/03/01 02:53:38;;;;;;;10.90;3.40;;;;;;;2.46;44.93;100092.97;4485837;32;20089;-80
2022/03/01 02:56:04;;;;;;;10.85;3.40;;;;;;;2.41;45.35;100081.69;4485866;32;20084;-80
2022/03/01 02:58:29;;;;;;;10.68;3.60;;;;;;;2.58;44.78;100086.88;4469393;32;20462;-79
2022/03/01 03:00:55;;;;;;;10.98;3.85;;;;;;;2.60;44.82;100084.28;4487083;32;20147;-79
2022/03/01 03:03:20;;;;;;;10.80;3.53;;;;;;;2.65;44.56;100074.75;4473248;32;20084;-80
2022/03/01 03:05:46;;;;;;;9.13;3.20;;;;;;;2.68;44.38;100085.97;4487477;32;20123;-79
2022/03/01 03:08:11;;;;;;;11.18;3.25;;;;;;;2.80;44.20;100085.13;4487365;32;20379;-79
2022/03/01 03:10:37;;;;;;;10.43;3.20;;;;;;;2.63;44.36;100079.09;4490217;31;20137;-79
2022/03/01 03:13:03;;;;;;;10.32;2.92;;;;;;;2.65;44.24;100073.00;4503219;31;20084;-79
2022/03/01 03:15:29;;;;;;;9.32;3.28;;;;;;;2.84;44.02;100084.25;4488780;31;20132;-79
2022/03/01 03:17:55;;;;;;;10.98;3.25;;;;;;;2.85;43.92;100078.16;4487481;31;20110;-80
2022/03/01 03:20:21;;;;;;;10.63;3.50;;;;;;;2.87;43.83;100083.34;4472686;32;20080;-79
2022/03/01 03:22:47;;;;;;;10.13;3.62;;;;;;;2.62;44.41;100092.94;4481571;32;20144;-79
2022/03/01 03:25:12;;;;;;;9.57;3.30;;;;;;;2.51;44.46;100077.34;4472684;31;20124;-78
2022/03/01 03:27:38;;;;;;;11.10;3.17;;;;;;;2.58;44.67;100091.22;4502225;31;20118;-79
2022/03/01 03:30:05;;;;;;;9.55;3.22;;;;;;;2.51;44.48;100079.94;4500470;31;20134;-79
2022/03/01 03:32:30;;;;;;;10.15;3.45;;;;;;;2.66;44.00;100077.31;4472928;32;20136;-79
2022/03/01 03:34:56;;;;;;;9.98;3.22;;;;;;;2.58;44.28;100086.88;4492528;31;20865;-79
2022/03/01 03:37:21;;;;;;;8.20;3.10;;;;;;;2.62;44.09;100085.13;4488706;31;20136;-80
2022/03/01 03:39:47;;;;;;;11.60;3.50;;;;;;;2.67;44.00;100088.63;4486919;31;20092;-79
2022/03/01 03:42:12;;;;;;;11.18;3.17;;;;;;;2.52;44.32;100084.28;4487231;31;20107;-78
2022/03/01 03:44:39;;;;;;;10.23;3.30;;;;;;;2.69;43.86;100077.31;4487056;32;20097;-78
2022/03/01 03:47:05;;;;;;;10.70;3.15;;;;;;;2.71;43.82;100085.13;4485956;32;20092;-78
2022/03/01 03:49:31;;;;;;;10.80;3.30;;;;;;;2.57;44.18;100077.34;4487352;31;20084;-79
2022/03/01 03:51:57;;;;;;;10.90;3.55;;;;;;;2.66;43.90;100092.06;4473110;32;20150;-78
2022/03/01 03:54:22;;;;;;;10.02;3.50;;;;;;;2.46;44.33;100077.34;4487694;31;20115;-80
2022/03/01 03:56:47;;;;;;;9.50;2.87;;;;;;;2.55;44.37;100072.16;4472469;32;20104;-80
2022/03/01 03:59:13;;;;;;;11.25;3.45;;;;;;;2.59;44.17;100075.63;4496330;31;20092;-80
2022/03/01 04:01:38;;;;;;;10.30;3.37;;;;;;;2.28;44.67;100078.25;4496153;31;20098;-79
2022/03/01 04:04:04;;;;;;;11.32;3.12;;;;;;;2.50;44.41;100076.47;4490802;31;20100;-79
2022/03/01 04:06:30;;;;;;;10.70;3.47;;;;;;;2.50;44.16;100073.88;4485144;32;20100;-80
2022/03/01 04:08:56;;;;;;;10.18;3.30;;;;;;;2.38;44.23;100076.50;4485393;32;20528;-79
2022/03/01 04:11:21;;;;;;;12.68;3.50;;;;;;;2.55;44.00;100073.88;4493755;31;20088;-80
2022/03/01 04:13:46;;;;;;;8.50;2.80;;;;;;;2.63;43.96;100081.69;4502505;31;20092;-79
2022/03/01 04:16:12;;;;;;;8.68;2.78;;;;;;;2.50;43.96;100076.47;4494941;31;20420;-79
2022/03/01 04:18:38;;;;;;;9.38;3.00;;;;;;;2.50;43.94;100063.47;4486652;31;20352;-79
2022/03/01 04:21:04;;;;;;;11.73;3.28;;;;;;;2.35;44.37;100073.88;4485199;32;20111;-80
2022/03/01 04:23:30;;;;;;;9.98;3.10;;;;;;;2.51;44.06;100074.72;4486997;31;20135;-80
2022/03/01 04:25:55;;;;;;;10.00;3.17;;;;;;;2.66;44.00;100079.06;4485522;32;20161;-79
2022/03/01 04:28:21;;;;;;;11.88;3.45;;;;;;;2.74;43.50;100072.09;4485512;32;20108;-79
2022/03/01 04:30:46;;;;;;;9.60;2.78;;;;;;;2.45;44.01;100070.41;4488282;31;20356;-80
2022/03/01 04:33:12;;;;;;;8.65;2.80;;;;;;;2.43;43.93;100079.09;4471990;32;20116;-80
2022/03/01 04:35:37;;;;;;;9.20;3.08;;;;;;;2.46;44.05;100068.69;4459629;31;20108;-78
2022/03/01 04:38:03;;;;;;;10.52;2.90;;;;;;;2.50;43.98;100068.66;4486314;31;20191;-79
2022/03/01 04:40:28;;;;;;;8.05;2.67;;;;;;;2.37;44.05;100064.34;4474719;31;20122;-79
2022/03/01 04:42:54;;;;;;;9.35;3.03;;;;;;;2.44;43.90;100078.22;4487620;31;20093;-78
2022/03/01 04:45:19;;;;;;;9.27;3.03;;;;;;;2.33;44.02;100081.69;4487700;31;20379;-79
2022/03/01 04:47:45;;;;;;;8.52;2.72;;;;;;;2.27;44.05;100078.22;4502185;31;20391;-78
2022/03/01 04:50:11;;;;;;;8.93;3.00;;;;;;;2.46;43.91;100068.69;4500731;31;20109;-78
2022/03/01 04:52:37;;;;;;;8.68;3.03;;;;;;;2.40;43.93;100077.37;4485210;32;20175;-78
2022/03/01 04:55:03;;;;;;;7.37;2.65;;;;;;;2.58;43.61;100073.00;4486433;32;20080;-80
2022/03/01 04:57:28;;;;;;;8.43;2.85;;;;;;;2.51;43.63;100075.63;4485062;32;20100;-79
2022/03/01 04:59:53;;;;;;;9.27;2.97;;;;;;;2.51;43.80;100072.13;4492704;31;20401;-80
2022/03/01 05:02:19;;;;;;;9.88;2.90;;;;;;;2.44;43.77;100066.09;4496853;31;20469;-80
2022/03/01 05:04:44;;;;;;;7.87;2.83;;;;;;;2.23;44.18;100076.50;4487810;31;20131;-80
2022/03/01 05:07:10;;;;;;;11.25;2.83;;;;;;;2.40;43.87;100061.75;4502014;31;20411;-79
2022/03/01 05:09:35;;;;;;;10.30;2.87;;;;;;;2.44;43.74;100076.50;4485719;31;20138;-80
2022/03/01 05:12:00;;;;;;;9.68;2.60;;;;;;;2.48;43.50;100061.75;4486807;31;20092;-80
2022/03/01 05:14:26;;;;;;;8.82;3.10;;;;;;;2.51;43.35;100074.72;4487208;31;20114;-80
2022/03/01 05:16:52;;;;;;;9.57;2.50;;;;;;;2.36;43.64;100076.50;4501789;31;20110;-80
2022/03/01 05:19:17;;;;;;;8.23;2.60;;;;;;;2.50;43.53;100063.47;4501511;31;20107;-80
2022/03/01 05:21:43;;;;;;;8.25;2.65;;;;;;;2.37;43.48;100065.22;4501764;31;20085;-80
2022/03/01 05:24:09;;;;;;;8.95;2.53;;;;;;;2.60;43.06;100061.72;4501731;31;20080;-80
2022/03/01 05:26:35;;;;;;;11.00;3.00;;;;;;;2.27;43.83;100065.22;4487158;31;20084;-80
2022/03/01 05:29:00;;;;;;;11.23;2.95;;;;;;;2.26;43.80;100060.87;4497934;31;20363;-80
2022/03/01 05:31:26;;;;;;;10.02;2.83;;;;;;;2.23;43.95;100061.75;4485672;31;20380;-79
2022/03/01 05:33:52;;;;;;;9.10;2.65;;;;;;;2.51;43.58;100054.81;4484669;32;20112;-80
2022/03/01 05:36:18;;;;;;;9.13;2.50;;;;;;;2.35;43.70;100068.69;4485890;31;20155;-79
2022/03/01 05:38:44;;;;;;;10.00;2.50;;;;;;;2.46;43.59;100058.28;4486282;31;20076;-79
2022/03/01 05:41:10;;;;;;;8.55;2.70;;;;;;;2.46;43.31;100064.34;4501563;31;20118;-79
2022/03/01 05:43:36;;;;;;;9.88;2.87;;;;;;;2.77;42.67;100058.22;4482692;32;20109;-79
2022/03/01 05:46:02;;;;;;;8.68;2.60;;;;;;;2.77;42.68;100059.09;4484814;31;20151;-78
2022/03/01 05:48:27;;;;;;;9.38;2.80;;;;;;;2.75;42.64;100053.87;4498342;31;20368;-79
2022/03/01 05:50:54;;;;;;;9.43;2.35;;;;;;;2.85;42.53;100054.72;4501133;31;20096;-79
2022/03/01 05:53:19;;;;;;;9.20;2.58;;;;;;;2.83;42.27;100066.03;4476830;32;20085;-79
2022/03/01 05:55:44;;;;;;;7.68;2.30;;;;;;;2.87;42.36;100054.72;4471129;32;20143;-79
2022/03/01 05:58:10;;;;;;;8.70;2.62;;;;;;;2.99;42.08;100059.03;4471107;32;20121;-79
2022/03/01 06:00:35;;;;;;;9.30;2.80;;;;;;;2.88;42.25;100065.13;4485432;31;20143;-78
2022/03/01 06:03:01;;;;;;;9.35;3.00;;;;;;;3.18;42.14;100067.63;4491463;31;20110;-76
2022/03/01 06:05:28;;;;;;;9.23;2.87;;;;;;;2.79;42.36;100066.91;4490614;31;20122;-77
2022/03/01 06:07:55;;;;;;;8.52;2.85;;;;;;;3.15;41.72;100063.31;4471175;32;20089;-76
2022/03/01 06:10:21;;;;;;;10.30;2.87;;;;;;;3.39;41.62;100069.28;4485246;32;20546;-77
2022/03/01 06:12:46;;;;;;;11.25;3.03;;;;;;;3.23;41.37;100071.09;4470919;32;20108;-77
2022/03/01 06:15:12;;;;;;;7.82;2.62;;;;;;;3.45;40.89;100071.88;4457981;32;20080;-77
2022/03/01 06:17:37;;;;;;;9.02;2.55;;;;;;;3.26;41.26;100068.47;4485072;32;20115;-75
2022/03/01 06:20:04;;;;;;;9.15;2.70;;;;;;;3.43;40.96;100079.69;4485861;31;20130;-77
2022/03/01 06:22:29;;;;;;;10.07;2.62;;;;;;;3.52;40.91;100077.03;4471656;32;20092;-76
2022/03/01 06:24:55;;;;;;;9.30;2.85;;;;;;;3.70;40.23;100068.25;4473854;32;20427;-76
2022/03/01 06:27:22;;;;;;;11.25;2.80;;;;;;;3.71;40.35;100071.72;4473276;32;20149;-76
2022/03/01 06:29:47;;;;;;;8.30;2.78;;;;;;;3.60;40.56;100063.09;4473061;32;20793;-77
2022/03/01 06:32:13;;;;;;;9.80;2.53;;;;;;;3.58;40.41;100057.03;4487378;32;20128;-76
2022/03/01 06:34:38;;;;;;;9.18;2.75;;;;;;;3.35;40.68;100068.44;4486971;32;20088;-77
2022/03/01 06:37:04;;;;;;;9.60;2.53;;;;;;;3.57;40.43;100061.37;4487426;32;20088;-77
2022/03/01 06:39:29;;;;;;;9.23;2.85;;;;;;;3.89;39.85;100062.91;4472670;32;20128;-78
2022/03/01 06:41:55;;;;;;;9.93;2.83;;;;;;;4.01;40.02;100062.81;4496435;31;20486;-79
2022/03/01 06:44:21;;;;;;;9.13;2.72;;;;;;;3.95;39.50;100060.25;4481182;32;20100;-79
2022/03/01 06:46:46;;;;;;;7.70;2.35;;;;;;;3.56;40.38;100090.91;4493792;31;20105;-78
2022/03/01 06:49:14;;;;;;;9.35;2.70;;;;;;;3.47;40.43;100070.97;4498329;31;20096;-77
2022/03/01 06:51:40;;;;;;;7.07;2.37;;;;;;;3.66;40.37;100071.75;4487352;32;20193;-77
2022/03/01 06:54:05;;;;;;;15.77;2.92;;;;;;;3.91;39.93;100066.38;4487206;32;20115;-78
2022/03/01 06:56:30;;;;;;;8.88;2.78;;;;;;;3.81;39.74;100067.31;4487436;32;20180;-76
2022/03/01 06:58:57;;;;;;;8.20;2.78;;;;;;;3.78;39.88;100062.97;4487279;32;20149;-76
2022/03/01 07:01:22;;;;;;;8.73;2.33;;;;;;;3.97;39.56;100062.88;4482142;31;20100;-76
2022/03/01 07:03:48;;;;;;;8.48;2.50;;;;;;;3.84;39.88;100062.06;4487317;31;20411;-76
2022/03/01 07:06:13;;;;;;;8.98;2.60;;;;;;;3.83;39.68;100062.97;4487723;31;20076;-76
2022/03/01 07:08:39;;;;;;;8.88;2.80;;;;;;;3.97;39.79;100058.50;4472635;32;20466;-80
2022/03/01 07:11:05;;;;;;;9.98;2.70;;;;;;;4.17;39.30;100050.53;4459489;32;20383;-81
2022/03/01 07:13:30;;;;;;;11.27;3.10;;;;;;;4.04;39.47;100056.75;4472365;32;20093;-77
2022/03/01 07:15:56;;;;;;;9.23;2.40;;;;;;;4.43;39.08;100045.09;4473296;32;20076;-78
2022/03/01 07:18:21;;;;;;;9.98;2.42;;;;;;;4.40;38.41;100057.28;4486399;32;20149;-79
2022/03/01 07:20:47;;;;;;;11.07;2.92;;;;;;;4.23;38.77;100060.03;4486584;32;20099;-77
2022/03/01 07:23:14;;;;;;;8.57;3.00;;;;;;;4.40;38.54;100046.84;4494959;31;20088;-79
2022/03/01 07:25:39;;;;;;;11.25;2.55;;;;;;;4.32;39.00;100045.16;4488291;31;20190;-79
2022/03/01 07:28:05;;;;;;;8.50;2.45;;;;;;;4.58;38.24;100044.09;4488050;31;20129;-79
2022/03/01 07:30:31;;;;;;;7.22;2.28;;;;;;;4.51;38.47;100060.69;4488036;31;20139;-78
2022/03/01 07:32:57;;;;;;;9.43;2.60;;;;;;;4.45;38.38;100048.53;4487409;31;20080;-77
2022/03/01 07:35:23;;;;;;;9.35;2.40;;;;;;;4.46;38.54;100041.56;4473591;32;20504;-79
2022/03/01 07:37:50;;;;;;;7.85;2.12;;;;;;;4.94;38.00;100036.72;4486768;32;20096;-79
2022/03/01 07:40:17;;;;;;;8.65;2.70;;;;;;;4.70;37.32;100037.88;4471355;32;20101;-79
2022/03/01 07:42:43;;;;;;;9.20;2.40;;;;;;;4.85;37.05;100042.06;4472918;32;20110;-79
2022/03/01 07:45:09;;;;;;;9.93;2.50;;;;;;;5.15;37.17;100045.19;4472579;32;20436;-80
2022/03/01 07:47:34;;;;;;;8.60;2.10;;;;;;;5.15;37.16;100046.06;4486977;32;20470;-79
2022/03/01 07:50:00;;;;;;;8.05;2.10;;;;;;;5.45;36.69;100039.56;4472663;32;20097;-79
2022/03/01 07:52:25;;;;;;;8.88;2.25;;;;;;;5.47;36.21;100036.94;4472606;32;20368;-79
2022/03/01 07:54:51;;;;;;;7.20;2.30;;;;;;;5.52;36.20;100042.97;4498749;31;20068;-80
2022/03/01 07:57:17;;;;;;;7.80;2.17;;;;;;;5.48;36.22;100042.12;4488193;31;20118;-79
2022/03/01 07:59:43;;;;;;;6.97;2.15;;;;;;;5.42;35.66;100052.66;4475038;31;20152;-80
2022/03/01 08:02:09;;;;;;;9.68;2.20;;;;;;;5.06;35.99;100051.38;4502629;31;20137;-80
2022/03/01 08:04:34;;;;;;;8.77;2.33;;;;;;;5.28;35.86;100052.00;4489990;31;20137;-80
2022/03/01 08:07:00;;;;;;;7.72;1.85;;;;;;;5.41;36.08;100045.72;4472613;32;20096;-78
2022/03/01 08:09:25;;;;;;;8.25;2.10;;;;;;;5.68;35.58;100039.25;4472388;32;20132;-79
2022/03/01 08:11:51;;;;;;;8.00;2.28;;;;;;;5.66;35.37;100043.66;4486771;32;20370;-79
2022/03/01 08:14:16;;;;;;;8.00;2.20;;;;;;;5.88;36.13;100043.31;4496205;31;20170;-79
2022/03/01 08:16:42;;;;;;;6.32;1.95;;;;;;;5.63;35.08;100048.91;4474830;31;20489;-79
2022/03/01 08:19:07;;;;;;;5.82;2.17;;;;;;;5.72;34.78;100051.41;4488271;31;20108;-79
2022/03/01 08:21:33;;;;;;;7.57;1.90;;;;;;;5.50;34.83;100040.37;4492507;31;20111;-78
2022/03/01 08:23:58;;;;;;;7.45;1.83;;;;;;;5.81;34.73;100037.31;4472276;32;20100;-79
2022/03/01 08:26:24;;;;;;;10.57;2.30;;;;;;;5.92;34.00;100039.78;4486684;32;20093;-78
2022/03/01 08:28:50;;;;;;;8.98;2.20;;;;;;;5.31;34.55;100055.44;4472283;32;20145;-79
2022/03/01 08:31:16;;;;;;;7.45;2.30;;;;;;;5.68;34.30;100044.50;4472376;32;20150;-79
2022/03/01 08:33:41;;;;;;;7.45;2.05;;;;;;;5.65;34.72;100038.44;4472682;31;20080;-78
2022/03/01 08:36:08;;;;;;;6.47;1.95;;;;;;;5.80;34.52;100071.34;4472238;32;20092;-78
2022/03/01 08:38:33;;;;;;;8.07;2.17;;;;;;;5.51;34.49;100046.47;4486248;32;20092;-79
2022/03/01 08:40:58;;;;;;;6.57;1.90;;;;;;;5.82;34.16;100046.03;4486544;32;20337;-79
2022/03/01 08:43:24;;;;;;;8.05;2.10;;;;;;;5.57;33.95;100048.13;4486516;32;20356;-79
2022/03/01 08:45:50;;;;;;;6.47;2.10;;;;;;;5.61;34.15;100040.22;4486197;32;20092;-79
2022/03/01 08:48:15;;;;;;;9.13;2.20;;;;;;;5.67;34.30;100039.28;4472577;32;20132;-79
2022/03/01 08:50:41;;;;;;;8.40;2.20;;;;;;;5.87;34.07;100046.81;4480385;31;20645;-79
2022/03/01 08:53:07;;;;;;;7.25;1.90;;;;;;;5.75;33.98;100034.78;4502262;31;20084;-78
2022/03/01 08:55:32;;;;;;;6.68;1.90;;;;;;;6.10;33.34;100023.81;4502052;31;20096;-78
2022/03/01 08:57:58;;;;;;;6.87;1.98;;;;;;;6.18;32.82;100021.09;4487729;31;20093;-77
2022/03/01 09:00:23;;;;;;;6.45;1.60;;;;;;;6.11;32.38;100022.06;4502032;31;20084;-78
2022/03/01 09:02:49;;;;;;;6.47;1.83;;;;;;;6.04;32.71;100015.19;4502083;31;20115;-78
2022/03/01 09:05:14;;;;;;;6.87;2.12;;;;;;;6.11;32.68;100006.37;4493813;31;20379;-78
2022/03/01 09:07:40;;;;;;;9.60;2.00;;;;;;;6.21;32.09;100007.94;4486230;32;20084;-77
2022/03/01 09:10:06;;;;;;;7.30;1.70;;;;;;;6.22;32.35;100020.13;4471914;32;20139;-78
2022/03/01 09:12:32;;;;;;;6.53;1.90;;;;;;;6.13;31.57;100014.19;4472130;32;20387;-78
2022/03/01 09:14:57;;;;;;;7.10;1.77;;;;;;;6.13;31.79;100004.59;4471940;32;20145;-78
2022/03/01 09:17:23;;;;;;;6.65;1.80;;;;;;;6.28;31.84;99998.25;4486130;32;20084;-79
2022/03/01 09:19:49;;;;;;;5.22;1.80;;;;;;;6.34;31.86;100003.34;4471803;32;20092;-78
2022/03/01 09:22:14;;;;;;;5.72;1.62;;;;;;;6.21;31.17;99996.59;4489878;31;20098;-78
2022/03/01 09:24:40;;;;;;;5.22;1.60;;;;;;;6.21;31.46;100000.09;4501726;31;20104;-78
2022/03/01 09:27:06;;;;;;;7.93;1.87;;;;;;;6.46;31.09;99997.03;4487854;31;20236;-79
2022/03/01 09:29:32;;;;;;;6.10;1.83;;;;;;;6.55;31.15;99994.25;4501809;31;20118;-78
2022/03/01 09:31:58;;;;;;;7.93;1.90;;;;;;;6.57;31.29;99987.22;4487587;31;20080;-78
2022/03/01 09:34:24;;;;;;;7.57;1.90;;;;;;;6.64;31.22;99980.97;4487698;31;20126;-79
2022/03/01 09:36:50;;;;;;;5.22;1.92;;;;;;;6.63;31.26;99992.34;4487616;31;20119;-79
2022/03/01 09:39:15;;;;;;;7.03;1.83;;;;;;;6.64;30.82;99980.09;4471556;32;20136;-78
2022/03/01 09:41:41;;;;;;;5.97;1.75;;;;;;;6.33;31.63;99971.97;4483039;31;20349;-79
2022/03/01 09:44:07;;;;;;;6.75;1.73;;;;;;;6.62;31.07;99980.13;4470105;32;20198;-78
2022/03/01 09:46:32;;;;;;;7.22;1.77;;;;;;;6.49;30.67;99976.06;4469972;32;20112;-78
2022/03/01 09:48:58;;;;;;;7.25;2.00;;;;;;;6.64;30.53;99972.25;4470148;32;20104;-79
2022/03/01 09:51:25;;;;;;;9.15;2.12;;;;;;;6.61;30.57;99965.34;4468804;32;20089;-79
2022/03/01 09:53:51;;;;;;;6.47;2.10;;;;;;;6.58;30.66;99959.28;4469927;32;20081;-79
2022/03/01 09:56:18;;;;;;;7.55;2.10;;;;;;;6.67;29.87;99953.88;4469225;32;20096;-79
2022/03/01 09:58:48;;;;;;;8.10;1.73;;;;;;;6.82;30.39;99963.19;4474613;32;20192;-79
2022/03/01 10:01:15;;;;;;;6.45;1.60;;;;;;;6.73;29.41;99948.50;4476161;32;20092;-78
2022/03/01 10:03:40;;;;;;;9.25;2.00;;;;;;;6.72;28.61;99956.37;4470610;32;20117;-79
2022/03/01 10:06:11;;;;;;;8.18;1.90;;;;;;;6.81;28.79;99958.81;4487729;31;20114;-78
2022/03/01 10:08:36;;;;;;;11.60;2.30;;;;;;;6.87;28.78;99949.06;4486480;32;20535;-78
2022/03/01 10:11:03;;;;;;;7.03;2.10;;;;;;;6.88;29.34;99950.81;4487820;31;20111;-77
2022/03/01 10:13:32;;;;;;;7.57;2.00;;;;;;;7.14;29.08;99938.91;4473286;32;20456;-77
2022/03/01 10:16:11;;;;;;;7.10;2.30;;;;;;;7.23;29.00;99940.47;4485495;32;20112;-77
2022/03/01 10:18:41;;;;;;;6.12;1.58;;;;;;;7.23;28.60;99930.84;4471791;32;20523;-79
2022/03/01 10:21:11;;;;;;;7.07;1.77;;;;;;;7.25;28.08;99936.91;4470610;32;20141;-79
2022/03/01 10:23:51;;;;;;;7.65;1.80;;;;;;;6.73;27.29;99924.94;4470839;32;20167;-77
2022/03/01 10:26:18;;;;;;;7.35;2.00;;;;;;;6.79;27.62;99926.56;4470647;32;20778;-78
2022/03/01 10:28:44;;;;;;;6.95;1.80;;;;;;;7.24;26.48;99918.59;4475523;32;20096;-76
2022/03/01 10:31:13;;;;;;;5.72;1.83;;;;;;;7.00;26.37;99914.78;4479193;32;20137;-77
2022/03/01 10:33:40;;;;;;;9.48;2.87;;;;;;;7.24;26.03;99910.72;4487525;31;20352;-76
2022/03/01 10:36:06;;;;;;;5.78;1.73;;;;;;;7.35;26.72;99905.25;4471879;32;20131;-78
2022/03/01 10:38:31;;;;;;;5.05;1.60;;;;;;;7.29;26.96;99906.25;4458375;32;20118;-78
2022/03/01 10:40:59;;;;;;;6.85;1.87;;;;;;;7.35;26.82;99900.00;4460808;31;20088;-79
2022/03/01 10:43:26;;;;;;;8.20;1.87;;;;;;;7.44;26.44;99894.56;4483715;31;20163;-79
2022/03/01 10:45:53;;;;;;;5.80;1.57;;;;;;;7.45;26.82;99888.41;4482833;32;20104;-78
2022/03/01 10:48:34;;;;;;;6.80;1.80;;;;;;;7.60;25.65;99874.91;4490691;31;20140;-76
2022/03/01 10:51:05;;;;;;;6.78;1.80;;;;;;;7.53;25.90;99875.09;4473587;31;20569;-79
2022/03/01 10:53:33;;;;;;;8.60;1.85;;;;;;;7.73;25.56;99869.38;4496182;31;20092;-79
2022/03/01 10:56:00;;;;;;;8.02;1.90;;;;;;;7.65;25.52;99864.31;4485599;32;20749;-78
2022/03/01 10:58:26;;;;;;;6.70;2.00;;;;;;;7.39;26.16;99857.09;4486097;32;20080;-79
2022/03/01 11:00:52;;;;;;;5.53;1.60;;;;;;;7.65;26.38;99846.81;4474973;32;20404;-77
2022/03/01 11:03:17;;;;;;;5.70;1.80;;;;;;;7.62;25.99;99856.53;4487425;32;20118;-76
2022/03/01 11:05:44;;;;;;;8.00;1.87;;;;;;;7.54;25.66;99842.75;4487628;32;20360;-78
2022/03/01 11:08:10;;;;;;;4.95;1.48;;;;;;;7.76;25.91;99845.69;4487375;32;20238;-78
2022/03/01 11:10:37;;;;;;;7.18;1.85;;;;;;;7.81;24.96;99849.91;4475619;31;20425;-79
2022/03/01 11:13:04;;;;;;;6.62;1.85;;;;;;;7.88;24.95;99837.50;4474267;32;20188;-87
2022/03/01 11:15:51;;;;;;;7.45;2.50;;;;;;;7.76;24.93;99832.56;4477197;31;20088;-89
2022/03/01 11:18:27;;;;;;;9.90;2.10;;;;;;;7.78;25.05;99836.00;4493969;31;20111;-87
2022/03/01 11:20:53;;;;;;;7.25;2.17;;;;;;;7.99;25.60;99818.81;4477977;31;20143;-86
2022/03/01 11:23:24;;;;;;;7.22;1.87;;;;;;;8.07;25.66;99819.47;4479275;31;20174;-88
2022/03/01 11:25:50;;;;;;;8.40;2.08;;;;;;;8.21;25.55;99800.72;4494803;31;20096;-87